Time;durP1;ratioP1;P1;durP2;ratioP2;P2;SDS_P1;SDS_P2;PMS_P1;PMS_P2;Temp;Humidity;BMP_temperature;BMP_pressure;BME280_temperature;BME280_humidity;BME280_pressure;Samples;Min_cycle;Max_cycle;Signal;HPM_P1;HPM_P2
2022/03/18 00:00:20;;;;;;;7.77;4.77;;;;;;;8.99;59.17;100969.31;4141238;28;20242;-60
2022/03/18 00:02:24;;;;;;;6.63;4.57;;;;;;;8.23;60.10;100964.38;4140595;28;20326;-62
2022/03/18 00:04:26;;;;;;;8.70;4.33;;;;;;;8.93;59.41;100965.34;4141091;28;20257;-61
2022/03/18 00:06:27;;;;;;;7.43;4.70;;;;;;;8.81;59.18;100979.53;4141339;28;20225;-61
2022/03/18 00:08:29;;;;;;;8.17;4.90;;;;;;;9.26;58.40;100955.69;4140917;28;20237;-62
2022/03/18 00:10:31;;;;;;;8.40;4.43;;;;;;;8.58;59.97;101000.69;4141983;28;20837;-60
2022/03/18 00:12:33;;;;;;;9.47;4.47;;;;;;;8.94;59.32;100972.31;4144404;28;20272;-61
2022/03/18 00:14:35;;;;;;;12.20;4.57;;;;;;;8.57;59.76;100993.69;4141143;28;20283;-60
2022/03/18 00:16:36;;;;;;;11.77;4.80;;;;;;;9.04;59.14;100969.78;4143529;28;20324;-60
2022/03/18 00:18:38;;;;;;;9.40;4.97;;;;;;;9.00;59.05;100966.53;4144493;28;20239;-59
2022/03/18 00:20:40;;;;;;;9.77;4.37;;;;;;;8.73;60.04;100988.91;4143519;28;20260;-60
2022/03/18 00:22:44;;;;;;;8.90;4.60;;;;;;;8.38;60.08;100994.22;4143828;28;20236;-58
2022/03/18 00:24:46;;;;;;;7.07;4.37;;;;;;;8.74;59.58;100987.09;4143965;28;20316;-61
2022/03/18 00:26:47;;;;;;;8.57;4.57;;;;;;;8.57;59.52;100983.06;4143011;28;20353;-58
2022/03/18 00:28:49;;;;;;;5.97;4.20;;;;;;;8.90;58.83;100977.00;4144223;28;20260;-56
2022/03/18 00:30:51;;;;;;;9.97;4.27;;;;;;;8.20;60.34;100993.72;4144161;28;20787;-62
2022/03/18 00:32:53;;;;;;;8.57;4.53;;;;;;;8.08;60.23;100994.66;4143494;28;20279;-59
2022/03/18 00:35:10;;;;;;;12.50;4.93;;;;;;;8.00;59.90;100987.25;4144341;28;20617;-59
2022/03/18 00:37:11;;;;;;;9.83;4.90;;;;;;;8.87;59.01;100963.16;4143769;28;20684;-59
2022/03/18 00:39:13;;;;;;;8.77;4.40;;;;;;;8.40;60.21;101006.38;4143670;28;20348;-60
2022/03/18 00:41:15;;;;;;;9.73;4.67;;;;;;;8.10;60.34;101000.66;4143564;28;20320;-59
2022/03/18 00:43:16;;;;;;;8.97;4.80;;;;;;;8.33;60.16;101004.31;4148473;28;20671;-59
2022/03/18 00:45:19;;;;;;;4.90;3.87;;;;;;;8.57;59.48;100993.69;4160099;28;20232;-61
2022/03/18 00:52:05;;;;;;;11.70;4.63;;;;;;;8.22;60.65;101018.31;4143210;28;20237;-60
2022/03/18 00:54:06;;;;;;;6.60;3.80;;;;;;;8.37;60.81;101011.94;4143738;28;20714;-61
2022/03/18 00:56:08;;;;;;;6.17;4.20;;;;;;;8.19;59.90;101002.66;4143211;28;20684;-61
2022/03/18 00:58:09;;;;;;;7.57;4.20;;;;;;;9.26;58.24;100963.66;4143327;28;20728;-62
2022/03/18 01:00:11;;;;;;;8.87;4.57;;;;;;;8.61;59.49;101003.09;4143422;28;20265;-61
2022/03/18 01:02:13;;;;;;;6.73;4.67;;;;;;;8.14;60.39;101020.69;4141476;28;20230;-61
2022/03/18 01:04:15;;;;;;;11.93;4.63;;;;;;;8.39;60.16;101011.81;4143360;28;20225;-61
2022/03/18 01:06:17;;;;;;;9.10;3.93;;;;;;;8.75;59.39;100989.63;4138112;28;20329;-59
2022/03/18 01:08:19;;;;;;;6.97;4.10;;;;;;;8.60;59.47;100995.28;4143337;28;20261;-62
2022/03/18 01:10:20;;;;;;;6.50;4.17;;;;;;;8.54;59.67;101008.03;4143147;28;20316;-61
2022/03/18 01:12:22;;;;;;;13.80;5.17;;;;;;;8.31;60.31;101022.09;4142787;28;20236;-61
2022/03/18 01:14:24;;;;;;;9.70;4.87;;;;;;;9.18;58.02;100939.53;4142064;28;20784;-61
2022/03/18 01:16:25;;;;;;;7.27;3.87;;;;;;;8.60;59.41;100992.63;4142868;28;20256;-61
2022/03/18 01:18:27;;;;;;;12.13;4.80;;;;;;;8.64;59.28;100994.91;4142459;28;20270;-61
2022/03/18 01:20:29;;;;;;;9.30;4.60;;;;;;;8.98;58.63;100968.47;4143280;28;20237;-61
2022/03/18 01:22:31;;;;;;;9.47;4.43;;;;;;;8.63;59.51;100995.03;4142924;28;20287;-60
2022/03/18 01:24:33;;;;;;;7.43;4.50;;;;;;;7.96;61.18;101036.13;4141980;28;20795;-61
2022/03/18 01:26:34;;;;;;;10.97;4.43;;;;;;;8.33;59.80;100999.03;4142315;28;20685;-61
2022/03/18 01:28:36;;;;;;;7.83;4.17;;;;;;;8.19;60.60;101014.09;4143173;28;20264;-60
2022/03/18 01:30:37;;;;;;;7.30;4.23;;;;;;;8.53;59.88;100994.88;4146599;28;20259;-61
2022/03/18 01:32:40;;;;;;;6.60;4.63;;;;;;;8.39;59.86;101007.34;4149673;28;20260;-61
2022/03/18 01:34:42;;;;;;;8.43;4.20;;;;;;;8.72;59.83;100992.50;4142715;28;20320;-59
2022/03/18 01:36:43;;;;;;;8.57;4.23;;;;;;;8.55;59.37;100983.19;4142089;28;20256;-61
2022/03/18 01:38:45;;;;;;;10.37;4.30;;;;;;;8.75;59.20;100986.16;4143103;28;20269;-59
2022/03/18 01:40:47;;;;;;;9.77;4.07;;;;;;;8.64;59.14;100971.03;4157022;28;20332;-59
2022/03/18 01:42:49;;;;;;;7.53;4.07;;;;;;;8.01;60.05;101003.03;4148649;28;20665;-58
2022/03/18 01:44:51;;;;;;;14.77;4.80;;;;;;;8.12;60.57;101026.09;4158800;28;20267;-60
2022/03/18 01:46:53;;;;;;;10.73;4.70;;;;;;;8.46;59.73;100998.94;4154307;28;20241;-61
2022/03/18 01:48:55;;;;;;;8.03;4.80;;;;;;;8.84;58.81;100964.22;4142390;28;20317;-61
2022/03/18 01:50:56;;;;;;;8.00;3.93;;;;;;;8.70;59.31;100991.78;4142759;28;20245;-61
2022/03/18 01:52:59;;;;;;;10.57;5.13;;;;;;;8.77;59.25;100984.22;4141918;28;20954;-59
2022/03/18 01:55:02;;;;;;;7.37;4.30;;;;;;;8.82;58.97;100981.22;4141976;28;20265;-59
2022/03/18 01:57:04;;;;;;;9.53;4.57;;;;;;;8.72;59.36;100992.50;4141953;28;20264;-60
2022/03/18 01:59:05;;;;;;;8.83;4.33;;;;;;;8.58;59.29;101001.53;4142557;28;20241;-58
2022/03/18 02:01:07;;;;;;;8.30;4.17;;;;;;;8.42;59.75;101000.13;4142536;28;20268;-59
2022/03/18 02:03:09;;;;;;;10.63;4.63;;;;;;;7.94;60.22;101004.44;4140940;28;20241;-61
2022/03/18 02:05:11;;;;;;;9.03;4.83;;;;;;;7.96;60.21;101001.69;4142819;28;20637;-60
2022/03/18 02:07:14;;;;;;;7.60;4.77;;;;;;;7.99;60.42;101020.84;4142031;28;20336;-59
2022/03/18 02:09:15;;;;;;;11.13;4.73;;;;;;;8.17;60.70;101016.03;4141725;28;20241;-61
2022/03/18 02:11:17;;;;;;;7.73;4.57;;;;;;;7.68;61.57;101034.59;4142288;28;20273;-61
2022/03/18 02:13:18;;;;;;;10.37;4.53;;;;;;;8.24;60.29;101010.25;4141625;28;20277;-62
2022/03/18 02:15:21;;;;;;;10.73;4.33;;;;;;;8.43;59.66;101001.84;4141525;28;20348;-60
2022/03/18 02:17:23;;;;;;;7.37;4.50;;;;;;;8.64;59.02;100979.00;4142074;28;20792;-59
2022/03/18 02:19:25;;;;;;;8.30;4.30;;;;;;;8.49;59.55;100996.06;4142170;28;20676;-58
2022/03/18 02:21:28;;;;;;;11.37;4.63;;;;;;;8.48;59.53;101005.81;4141442;28;20321;-59
2022/03/18 02:23:30;;;;;;;9.53;4.17;;;;;;;8.60;59.23;101001.41;4141630;28;20299;-61
2022/03/18 02:25:31;;;;;;;8.20;4.17;;;;;;;8.84;58.64;100987.25;4141808;28;20325;-59
2022/03/18 02:27:33;;;;;;;8.60;4.40;;;;;;;8.94;58.44;100981.09;4141102;28;20662;-60
2022/03/18 02:29:36;;;;;;;11.73;4.43;;;;;;;8.38;59.42;101021.56;4142293;28;20240;-61
2022/03/18 02:31:38;;;;;;;11.60;4.30;;;;;;;8.75;58.86;101007.38;4141610;28;20288;-61
2022/03/18 02:33:39;;;;;;;10.20;4.60;;;;;;;8.77;59.19;101008.09;4140515;28;20269;-59
2022/03/18 02:35:42;;;;;;;7.60;4.87;;;;;;;8.77;58.78;100997.47;4142236;28;20656;-61
2022/03/18 02:37:44;;;;;;;8.77;3.80;;;;;;;8.43;59.57;101017.75;4141869;28;20256;-59
2022/03/18 02:39:45;;;;;;;9.07;4.10;;;;;;;8.59;58.98;101002.34;4141001;28;20820;-60
2022/03/18 02:41:47;;;;;;;9.63;4.40;;;;;;;8.88;58.70;100992.22;4141667;28;20256;-61
2022/03/18 02:43:49;;;;;;;9.90;3.77;;;;;;;8.83;58.13;100978.44;4139770;28;20740;-61
2022/03/18 02:45:50;;;;;;;8.67;4.60;;;;;;;8.85;58.33;100994.25;4140466;28;20568;-61
2022/03/18 02:47:52;;;;;;;8.80;4.40;;;;;;;8.14;59.95;101044.53;4147824;28;20339;-62
2022/03/18 02:49:53;;;;;;;5.97;4.60;;;;;;;8.29;59.13;101018.69;4141951;28;20237;-61
2022/03/18 02:51:56;;;;;;;5.67;4.23;;;;;;;8.18;60.06;101041.53;4140968;28;20322;-61
2022/03/18 02:53:58;;;;;;;8.17;4.60;;;;;;;8.06;59.67;101031.84;4141257;28;20240;-60
2022/03/18 02:56:02;;;;;;;10.40;4.57;;;;;;;8.35;59.91;101027.06;4141677;28;20270;-61
2022/03/18 02:58:04;;;;;;;10.37;4.60;;;;;;;7.79;60.01;101011.69;4145626;28;20291;-61
2022/03/18 03:00:06;;;;;;;10.37;4.40;;;;;;;8.91;58.41;100983.16;4145539;28;20657;-61
2022/03/18 03:02:08;;;;;;;8.17;4.43;;;;;;;8.45;59.14;101010.50;4139961;28;20317;-58
2022/03/18 03:04:13;;;;;;;11.97;5.13;;;;;;;9.05;57.97;100979.47;4145505;28;20225;-62
2022/03/18 03:08:35;;;;;;;14.40;5.67;;;;;;;8.47;59.42;101024.50;4137689;28;20680;-61
2022/03/18 03:10:36;;;;;;;8.77;4.53;;;;;;;8.32;59.57;101039.72;4140180;28;20661;-58
2022/03/18 03:12:41;;;;;;;10.87;4.80;;;;;;;8.55;59.09;101015.00;4140037;28;20276;-61
2022/03/18 03:14:43;;;;;;;11.30;4.90;;;;;;;8.14;59.74;101034.78;4139312;28;20744;-61
2022/03/18 03:16:44;;;;;;;8.60;4.73;;;;;;;8.38;58.93;101010.97;4138431;28;20740;-59
2022/03/18 03:18:46;;;;;;;9.43;5.10;;;;;;;8.71;58.35;100992.63;4140880;28;20239;-60
2022/03/18 03:20:48;;;;;;;8.03;4.60;;;;;;;8.97;58.00;100995.13;4142097;28;20262;-64
2022/03/18 03:22:50;;;;;;;12.80;5.30;;;;;;;8.71;58.86;101022.66;4141211;28;20294;-60
2022/03/18 03:24:51;;;;;;;10.00;5.30;;;;;;;8.69;58.35;101011.31;4140526;28;20546;-62
2022/03/18 03:26:53;;;;;;;7.47;4.87;;;;;;;7.88;59.95;101031.34;4141126;28;20626;-58
2022/03/18 03:28:54;;;;;;;7.57;4.40;;;;;;;8.62;58.71;101023.34;4141385;28;20272;-61
2022/03/18 03:30:56;;;;;;;11.90;5.20;;;;;;;8.72;58.25;101018.19;4141003;28;20265;-60
2022/03/18 03:32:58;;;;;;;11.90;4.77;;;;;;;8.65;58.22;101023.13;4140664;28;20336;-60
2022/03/18 03:35:00;;;;;;;8.70;4.73;;;;;;;9.18;57.75;101013.84;4141661;28;20339;-60
2022/03/18 03:37:02;;;;;;;10.57;5.17;;;;;;;8.25;59.09;101039.28;4140434;28;20225;-61
2022/03/18 03:39:03;;;;;;;8.07;4.90;;;;;;;8.27;59.42;101058.59;4133394;28;20257;-62
2022/03/18 03:41:05;;;;;;;13.87;4.93;;;;;;;8.25;60.04;101081.69;4141394;28;20797;-62
2022/03/18 03:43:08;;;;;;;9.00;5.00;;;;;;;8.60;59.35;101045.66;4143703;28;20287;-60
2022/03/18 03:45:10;;;;;;;9.00;4.50;;;;;;;8.93;58.44;101018.38;4158739;28;20338;-62
2022/03/18 03:47:13;;;;;;;13.63;6.87;;;;;;;8.26;58.97;101045.44;4155185;28;20241;-60
2022/03/18 03:49:14;;;;;;;10.33;5.20;;;;;;;8.00;60.29;101087.91;4143595;28;20295;-61
2022/03/18 03:51:16;;;;;;;9.30;4.97;;;;;;;8.30;60.09;101076.06;4144449;28;20264;-59
2022/03/18 03:53:18;;;;;;;13.03;5.83;;;;;;;8.45;59.23;101055.56;4143638;28;20279;-61
2022/03/18 03:55:20;;;;;;;8.83;5.17;;;;;;;8.04;60.39;101084.09;4143733;28;20838;-62
2022/03/18 03:57:21;;;;;;;11.80;4.87;;;;;;;8.02;60.59;101092.16;4143786;28;20256;-60
2022/03/18 03:59:23;;;;;;;10.70;5.33;;;;;;;8.16;60.08;101075.25;4144480;28;20265;-61
2022/03/18 04:01:25;;;;;;;8.70;5.47;;;;;;;7.95;60.63;101082.09;4144053;28;20658;-60
2022/03/18 04:03:28;;;;;;;11.23;5.90;;;;;;;7.90;60.69;101094.81;4143443;28;20320;-60
2022/03/18 04:05:31;;;;;;;8.93;5.00;;;;;;;8.51;59.53;101052.47;4144473;28;20241;-62
2022/03/18 04:07:35;;;;;;;9.73;5.23;;;;;;;8.32;59.63;101075.03;4143980;28;20333;-60
2022/03/18 04:09:36;;;;;;;12.97;5.40;;;;;;;8.19;60.20;101092.75;4142779;28;20694;-59
2022/03/18 04:11:38;;;;;;;9.47;5.10;;;;;;;8.01;60.74;101098.38;4141335;28;20674;-63
2022/03/18 04:13:40;;;;;;;6.90;4.57;;;;;;;7.67;61.52;101104.38;4151474;28;20228;-62
2022/03/18 04:15:42;;;;;;;8.47;5.23;;;;;;;8.37;60.21;101080.84;4143487;28;20259;-60
2022/03/18 04:17:46;;;;;;;12.47;5.03;;;;;;;8.05;60.63;101098.16;4143815;28;20597;-62
2022/03/18 04:19:48;;;;;;;11.00;4.97;;;;;;;8.30;59.84;101095.44;4144102;28;20323;-61
2022/03/18 04:21:49;;;;;;;10.40;5.00;;;;;;;8.19;59.94;101096.22;4143175;28;20284;-60
2022/03/18 04:23:51;;;;;;;9.10;5.13;;;;;;;7.65;61.30;101101.84;4143713;28;20324;-61
2022/03/18 04:25:53;;;;;;;11.63;4.90;;;;;;;8.51;59.97;101086.94;4143820;28;20268;-62
2022/03/18 04:27:54;;;;;;;8.00;5.00;;;;;;;7.96;60.98;101118.22;4142765;28;20271;-61
2022/03/18 04:29:56;;;;;;;9.30;4.80;;;;;;;7.96;60.66;101111.09;4143753;28;20680;-62
2022/03/18 04:31:58;;;;;;;11.90;5.13;;;;;;;8.11;60.80;101116.28;4142475;28;20259;-61
2022/03/18 04:34:00;;;;;;;9.50;5.27;;;;;;;8.19;60.67;101108.66;4142763;28;20821;-61
2022/03/18 04:36:02;;;;;;;12.37;5.30;;;;;;;8.04;60.59;101113.22;4142071;28;20233;-62
2022/03/18 04:38:03;;;;;;;13.60;5.23;;;;;;;8.43;59.51;101091.97;4138814;28;20740;-60
2022/03/18 04:40:07;;;;;;;7.57;4.97;;;;;;;8.16;60.11;101109.69;4143155;28;20274;-60
2022/03/18 04:42:09;;;;;;;12.33;5.97;;;;;;;7.93;60.88;101136.97;4143773;28;20268;-59
2022/03/18 04:44:10;;;;;;;8.77;5.50;;;;;;;8.30;59.91;101102.56;4153558;28;20378;-61
2022/03/18 04:46:12;;;;;;;12.40;5.33;;;;;;;8.42;60.08;101108.81;4159299;28;20331;-60
2022/03/18 04:48:14;;;;;;;12.30;4.87;;;;;;;9.01;58.66;101087.59;4144982;28;20382;-62
2022/03/18 04:50:15;;;;;;;11.80;5.40;;;;;;;7.75;60.74;101139.09;4143506;28;20740;-61
2022/03/18 04:52:17;;;;;;;9.07;5.40;;;;;;;8.06;60.46;101121.91;4142626;28;20676;-59
2022/03/18 04:54:19;;;;;;;11.63;5.17;;;;;;;8.73;59.23;101100.28;4142964;28;20265;-61
2022/03/18 04:58:40;;;;;;;11.87;5.17;;;;;;;8.36;59.87;101115.41;4130245;28;20233;-60
2022/03/18 05:00:42;;;;;;;11.30;5.33;;;;;;;8.45;59.63;101108.59;4142031;28;20268;-60
2022/03/18 05:02:47;;;;;;;8.37;5.37;;;;;;;8.14;60.28;101124.88;4142499;28;20229;-61
2022/03/18 05:04:49;;;;;;;11.07;5.33;;;;;;;8.02;60.30;101126.56;4140432;28;20237;-60
2022/03/18 05:06:50;;;;;;;8.83;4.93;;;;;;;8.36;60.04;101116.25;4148499;28;20308;-61
2022/03/18 05:08:52;;;;;;;10.73;5.13;;;;;;;8.24;59.85;101117.09;4143376;28;20343;-62
2022/03/18 05:10:54;;;;;;;9.50;5.37;;;;;;;8.39;59.73;101115.19;4142735;28;20271;-60
2022/03/18 05:12:56;;;;;;;10.60;5.27;;;;;;;8.54;59.35;101121.16;4142281;28;20275;-60
2022/03/18 05:14:58;;;;;;;10.70;4.80;;;;;;;8.15;60.28;101139.81;4143117;28;20248;-61
2022/03/18 05:17:00;;;;;;;10.77;5.37;;;;;;;8.05;60.63;101151.16;4142932;28;20637;-62
2022/03/18 05:19:02;;;;;;;11.33;5.63;;;;;;;8.02;60.92;101158.38;4142487;28;20265;-62
2022/03/18 05:21:03;;;;;;;12.60;6.07;;;;;;;7.59;61.11;101148.09;4143163;28;20717;-60
2022/03/18 05:23:05;;;;;;;12.67;5.97;;;;;;;7.72;61.79;101171.94;4140592;28;20669;-57
2022/03/18 05:25:08;;;;;;;12.07;6.07;;;;;;;7.52;61.74;101181.25;4141530;28;20316;-61
2022/03/18 05:27:09;;;;;;;13.43;6.30;;;;;;;7.84;61.29;101162.31;4142852;28;20273;-59
2022/03/18 05:29:11;;;;;;;9.23;5.57;;;;;;;7.92;60.60;101153.81;4142763;28;20257;-60
2022/03/18 05:31:12;;;;;;;14.33;6.50;;;;;;;8.32;60.11;101138.63;4142260;28;20265;-58
2022/03/18 05:33:15;;;;;;;9.80;5.37;;;;;;;7.48;61.26;101169.19;4142466;28;20245;-62
2022/03/18 05:35:18;;;;;;;10.37;5.50;;;;;;;7.46;61.20;101171.06;4142746;28;20280;-61
2022/03/18 05:37:20;;;;;;;7.43;5.00;;;;;;;8.06;60.61;101166.94;4142162;28;20233;-61
2022/03/18 05:39:21;;;;;;;8.13;5.37;;;;;;;8.35;59.82;101138.38;4142857;28;20332;-59
2022/03/18 05:41:24;;;;;;;12.37;5.80;;;;;;;8.05;60.67;101173.19;4142835;28;20268;-61
2022/03/18 05:43:25;;;;;;;11.87;5.10;;;;;;;8.26;60.40;101165.53;4147993;28;20252;-60
2022/03/18 05:45:27;;;;;;;12.70;6.30;;;;;;;8.08;60.45;101183.56;4158874;28;20264;-60
2022/03/18 05:47:29;;;;;;;14.50;5.50;;;;;;;8.00;59.90;101165.59;4151120;28;20239;-61
2022/03/18 05:49:31;;;;;;;10.37;5.70;;;;;;;8.19;60.14;101177.53;4141821;28;20635;-60
2022/03/18 05:51:32;;;;;;;11.70;5.73;;;;;;;7.96;59.84;101160.59;4142549;28;20294;-60
2022/03/18 05:53:34;;;;;;;13.50;5.10;;;;;;;8.01;60.22;101185.78;4142647;28;20339;-60
2022/03/18 05:57:56;;;;;;;12.47;5.17;;;;;;;7.85;60.07;101158.72;4140035;28;20276;-60
2022/03/18 05:59:58;;;;;;;12.47;5.33;;;;;;;8.06;60.25;101179.34;4142286;28;20334;-61
2022/03/18 06:02:00;;;;;;;10.40;5.67;;;;;;;7.83;60.68;101189.72;4141703;28;20732;-61
2022/03/18 06:04:04;;;;;;;12.57;5.20;;;;;;;7.74;61.39;101207.09;4142251;28;20241;-60
2022/03/18 06:06:06;;;;;;;8.37;5.57;;;;;;;7.94;60.96;101183.69;4142906;28;20256;-61
2022/03/18 06:12:50;;;;;;;13.33;6.13;;;;;;;8.00;60.89;101183.25;4141885;28;20260;-59
2022/03/18 06:14:52;;;;;;;9.70;5.33;;;;;;;7.80;61.32;101197.88;4141131;28;20527;-60
2022/03/18 06:17:02;;;;;;;13.23;5.40;;;;;;;8.13;60.53;101180.59;4141981;28;20279;-59
2022/03/18 06:19:04;;;;;;;8.53;5.40;;;;;;;7.93;60.92;101190.78;4142474;28;20240;-58
2022/03/18 06:21:07;;;;;;;11.77;5.37;;;;;;;7.84;61.31;101207.31;4141592;28;20315;-61
2022/03/18 06:23:08;;;;;;;13.53;6.50;;;;;;;7.63;61.59;101202.53;4141441;28;20328;-61
2022/03/18 06:25:10;;;;;;;11.70;5.90;;;;;;;8.09;61.05;101195.88;4141869;28;20261;-62
2022/03/18 06:27:12;;;;;;;10.63;5.57;;;;;;;8.44;59.86;101159.91;4141200;28;20621;-61
2022/03/18 06:29:14;;;;;;;14.80;6.37;;;;;;;8.01;60.85;101193.75;4141984;28;20570;-60
2022/03/18 06:31:15;;;;;;;10.10;4.90;;;;;;;8.38;59.90;101169.16;4142090;28;20365;-61
2022/03/18 06:33:17;;;;;;;14.70;5.23;;;;;;;8.55;59.65;101159.97;4141023;28;20761;-63
2022/03/18 06:35:19;;;;;;;8.07;5.10;;;;;;;8.93;58.56;101149.22;4141922;28;20261;-60
2022/03/18 06:37:20;;;;;;;14.23;6.00;;;;;;;8.71;58.78;101173.81;4141916;28;20256;-61
2022/03/18 06:39:22;;;;;;;12.70;5.47;;;;;;;8.45;59.64;101194.25;4152378;28;20264;-62
2022/03/18 06:41:25;;;;;;;8.77;5.30;;;;;;;8.47;59.95;101204.75;4153699;28;20907;-60
2022/03/18 06:43:26;;;;;;;11.03;5.63;;;;;;;8.94;59.39;101192.50;4147855;28;20322;-60
2022/03/18 06:45:28;;;;;;;12.23;5.70;;;;;;;8.07;60.88;101218.13;4158006;28;20256;-60
2022/03/18 06:47:30;;;;;;;11.97;5.93;;;;;;;8.28;60.20;101206.00;4149649;28;20721;-60
2022/03/18 06:49:31;;;;;;;10.10;5.67;;;;;;;8.70;59.15;101181.88;4142155;28;20319;-60
2022/03/18 06:51:34;;;;;;;7.70;5.57;;;;;;;8.09;60.97;101230.31;4141976;28;20312;-60
2022/03/18 06:53:35;;;;;;;9.90;5.50;;;;;;;8.17;60.42;101225.34;4137038;28;20237;-57
2022/03/18 06:55:37;;;;;;;9.43;5.50;;;;;;;8.53;59.64;101189.25;4141495;28;20319;-60
2022/03/18 06:57:43;;;;;;;9.27;5.13;;;;;;;8.92;58.82;101168.72;4139502;28;20647;-60
2022/03/18 06:59:44;;;;;;;9.87;5.60;;;;;;;8.03;60.84;101242.16;4141727;28;20272;-62
2022/03/18 07:01:46;;;;;;;16.90;5.33;;;;;;;8.38;60.47;101219.50;4148809;28;20757;-62
2022/03/18 07:03:48;;;;;;;9.60;5.87;;;;;;;8.17;60.74;101229.75;4141704;28;20256;-56
2022/03/18 07:05:51;;;;;;;12.67;6.43;;;;;;;8.47;60.06;101199.44;4141218;28;20281;-59
2022/03/18 07:07:52;;;;;;;9.93;6.10;;;;;;;8.41;60.81;101216.66;4141434;28;20268;-61
2022/03/18 07:09:54;;;;;;;9.20;5.93;;;;;;;8.46;60.32;101208.34;4141984;28;20261;-60
2022/03/18 07:11:56;;;;;;;12.70;6.13;;;;;;;8.20;60.63;101225.13;4139569;28;20324;-59
2022/03/18 07:13:57;;;;;;;15.30;6.30;;;;;;;8.20;60.62;101217.19;4143447;28;20244;-60
2022/03/18 07:17:55;;;;;;;12.97;6.40;;;;;;;7.94;61.43;101240.16;4146564;28;20264;-61
2022/03/18 07:18:21;;;;;;;9.67;5.73;;;;;;;8.15;60.90;101235.19;4140664;28;20768;-58
2022/03/18 07:20:23;;;;;;;10.17;5.70;;;;;;;7.82;61.65;101254.25;4144807;28;20687;-61
2022/03/18 07:22:25;;;;;;;15.47;6.10;;;;;;;7.47;62.44;101252.16;4145181;28;20253;-61
2022/03/18 07:24:27;;;;;;;11.77;6.40;;;;;;;8.33;60.94;101225.13;4143495;28;20264;-61
2022/03/18 07:26:28;;;;;;;13.93;6.70;;;;;;;8.42;60.77;101220.97;4144566;28;20320;-60
2022/03/18 07:28:30;;;;;;;10.10;6.13;;;;;;;7.92;61.74;101247.38;4144053;28;20256;-60
2022/03/18 07:30:32;;;;;;;9.13;6.37;;;;;;;8.07;61.83;101245.47;4144555;28;20300;-60
2022/03/18 07:32:33;;;;;;;12.63;6.10;;;;;;;7.90;62.02;101251.94;4144493;28;20271;-59
2022/03/18 07:34:35;;;;;;;13.77;6.30;;;;;;;8.28;61.08;101216.63;4144748;28;20261;-60
2022/03/18 07:36:37;;;;;;;11.47;6.67;;;;;;;7.90;61.92;101262.53;4144034;28;20318;-61
2022/03/18 07:38:38;;;;;;;12.73;6.90;;;;;;;8.34;61.12;101231.25;4144548;28;20256;-60
2022/03/18 07:40:40;;;;;;;10.67;6.60;;;;;;;8.50;60.41;101225.75;4157727;28;20268;-61
2022/03/18 07:42:46;;;;;;;10.83;6.40;;;;;;;8.21;61.02;101239.22;4150322;28;20310;-62
2022/03/18 07:44:48;;;;;;;13.60;6.23;;;;;;;7.86;61.36;101253.06;4159119;28;20311;-62
2022/03/18 07:46:50;;;;;;;15.23;6.67;;;;;;;8.29;61.22;101251.91;4158200;28;20743;-62
2022/03/18 07:48:51;;;;;;;13.40;6.07;;;;;;;7.97;61.74;101269.09;4144358;28;20328;-60
2022/03/18 07:50:54;;;;;;;12.83;6.67;;;;;;;7.34;62.41;101259.22;4144026;28;20329;-61
2022/03/18 07:52:57;;;;;;;13.03;6.30;;;;;;;8.14;60.80;101243.25;4143974;28;20244;-60
2022/03/18 07:54:59;;;;;;;11.40;6.40;;;;;;;7.90;61.56;101266.94;4144287;28;20808;-62
2022/03/18 07:57:01;;;;;;;14.07;6.53;;;;;;;7.82;62.07;101284.22;4143453;28;20257;-61
2022/03/18 07:59:02;;;;;;;12.47;6.83;;;;;;;8.19;61.37;101254.38;4144585;28;20329;-59
2022/03/18 08:01:10;;;;;;;10.73;6.53;;;;;;;7.92;61.40;101255.31;4144339;28;20324;-60
2022/03/18 08:03:12;;;;;;;11.10;6.70;;;;;;;8.62;60.54;101230.16;4142929;28;20237;-60
2022/03/18 08:05:14;;;;;;;15.23;7.00;;;;;;;8.61;60.08;101225.81;4144612;28;20249;-61
2022/03/18 08:07:16;;;;;;;12.23;6.87;;;;;;;8.34;61.12;101255.97;4144219;28;20268;-61
2022/03/18 08:09:17;;;;;;;14.30;7.53;;;;;;;8.77;60.20;101236.16;4143318;28;20269;-61
2022/03/18 08:11:19;;;;;;;9.80;6.53;;;;;;;8.08;61.20;101268.34;4144151;28;20261;-57
2022/03/18 08:13:24;;;;;;;12.40;6.40;;;;;;;8.05;61.43;101278.31;4143649;28;20842;-59
2022/03/18 08:15:28;;;;;;;14.67;7.13;;;;;;;8.23;61.26;101261.16;4143390;28;20257;-58
2022/03/18 08:17:30;;;;;;;10.17;6.70;;;;;;;8.57;60.49;101245.53;4143826;28;20322;-60
2022/03/18 08:19:31;;;;;;;17.63;7.37;;;;;;;8.28;61.02;101251.06;4142422;28;20253;-60
2022/03/18 08:21:34;;;;;;;12.17;6.17;;;;;;;8.15;60.94;101260.81;4143626;28;20320;-59
2022/03/18 08:23:36;;;;;;;11.10;6.20;;;;;;;8.60;60.55;101250.63;4140043;28;20229;-58
2022/03/18 08:25:38;;;;;;;11.10;6.10;;;;;;;8.31;61.32;101276.53;4143876;28;20308;-61
2022/03/18 08:27:40;;;;;;;12.77;7.07;;;;;;;8.40;60.81;101273.25;4142989;28;20276;-60
2022/03/18 08:29:41;;;;;;;12.03;6.50;;;;;;;8.20;61.86;101287.84;4143747;28;20328;-61
2022/03/18 08:31:43;;;;;;;16.13;7.30;;;;;;;8.03;61.91;101292.50;4143187;28;20323;-61
2022/03/18 08:33:45;;;;;;;11.73;6.53;;;;;;;8.09;62.25;101301.00;4142720;28;20601;-59
2022/03/18 08:35:49;;;;;;;10.40;6.20;;;;;;;8.05;61.84;101288.91;4142583;28;20268;-61
2022/03/18 08:37:57;;;;;;;11.17;6.73;;;;;;;8.27;61.58;101285.63;4145105;28;20333;-61
2022/03/18 08:39:58;;;;;;;11.40;6.40;;;;;;;8.04;61.72;101282.78;4145782;28;20256;-61
2022/03/18 08:42:00;;;;;;;11.10;7.13;;;;;;;8.53;61.01;101268.78;4145381;28;20244;-58
2022/03/18 08:44:02;;;;;;;13.30;7.60;;;;;;;8.64;60.95;101241.50;4155020;28;20787;-62
2022/03/18 08:46:04;;;;;;;17.00;9.47;;;;;;;8.01;62.66;101294.41;4151922;28;20241;-60
2022/03/18 08:48:06;;;;;;;14.77;7.57;;;;;;;8.51;61.45;101275.16;4147202;28;20237;-58
2022/03/18 08:50:09;;;;;;;11.13;7.40;;;;;;;8.84;60.77;101250.66;4144022;28;20245;-63
2022/03/18 08:52:11;;;;;;;14.93;7.20;;;;;;;8.53;60.98;101271.44;4143863;28;20687;-62
2022/03/18 08:54:12;;;;;;;10.53;7.13;;;;;;;8.50;61.80;101278.75;4143133;28;20554;-61
2022/03/18 08:56:15;;;;;;;12.50;7.10;;;;;;;8.37;61.59;101284.94;4143301;28;20260;-61
2022/03/18 08:58:17;;;;;;;15.83;7.87;;;;;;;8.61;61.68;101272.69;4142317;28;20727;-61
2022/03/18 09:00:19;;;;;;;13.33;7.13;;;;;;;9.28;60.11;101253.69;4143249;28;20267;-60
2022/03/18 09:02:21;;;;;;;11.53;7.17;;;;;;;9.32;60.12;101234.78;4142930;28;20222;-60
2022/03/18 09:04:24;;;;;;;12.10;7.40;;;;;;;9.45;59.65;101234.72;4143204;28;20316;-62
2022/03/18 09:06:26;;;;;;;13.47;7.70;;;;;;;9.42;59.32;101237.59;4142407;28;20264;-60
2022/03/18 09:08:27;;;;;;;17.33;7.50;;;;;;;8.75;60.81;101261.97;4143142;28;20288;-61
2022/03/18 09:10:29;;;;;;;13.03;8.27;;;;;;;9.30;59.75;101243.78;4143323;28;20272;-63
2022/03/18 09:12:30;;;;;;;14.37;7.67;;;;;;;9.11;60.27;101258.41;4142103;28;20248;-60
2022/03/18 09:14:32;;;;;;;12.03;7.53;;;;;;;9.14;59.76;101260.84;4143081;28;20357;-59
2022/03/18 09:16:36;;;;;;;12.13;7.67;;;;;;;9.18;59.94;101266.78;4142866;28;20320;-63
2022/03/18 09:18:38;;;;;;;14.37;7.57;;;;;;;9.10;60.23;101259.41;4142505;28;20484;-58
2022/03/18 09:20:40;;;;;;;12.77;8.00;;;;;;;8.99;59.84;101253.19;4142140;28;20265;-61
2022/03/18 09:22:41;;;;;;;10.83;8.07;;;;;;;9.52;59.45;101266.97;4142934;28;20241;-62
2022/03/18 09:24:45;;;;;;;14.63;8.13;;;;;;;9.79;58.37;101239.28;4142220;28;20260;-62
2022/03/18 09:26:46;;;;;;;15.33;8.60;;;;;;;9.85;58.73;101237.00;4142598;28;20328;-61
2022/03/18 09:28:48;;;;;;;18.07;9.53;;;;;;;9.46;58.92;101244.34;4142933;28;20312;-61
2022/03/18 09:30:51;;;;;;;16.40;8.63;;;;;;;9.01;60.97;101291.88;4142354;28;20671;-59
2022/03/18 09:32:52;;;;;;;14.10;9.07;;;;;;;9.66;58.99;101242.03;4147861;28;20318;-59
2022/03/18 09:34:55;;;;;;;16.73;9.30;;;;;;;9.44;59.90;101266.69;4141514;28;20241;-61
2022/03/18 09:37:02;;;;;;;13.53;8.03;;;;;;;9.72;60.14;101251.34;4141884;28;20476;-60
2022/03/18 09:39:04;;;;;;;15.93;9.70;;;;;;;10.29;58.30;101234.50;4142457;28;20260;-60
2022/03/18 09:41:07;;;;;;;14.53;8.50;;;;;;;9.95;58.74;101231.00;4142758;28;20620;-61
2022/03/18 09:43:09;;;;;;;18.30;8.83;;;;;;;10.22;58.75;101243.94;4144543;28;20490;-60
2022/03/18 09:45:11;;;;;;;13.17;8.80;;;;;;;10.18;59.42;101248.66;4158811;28;20315;-61
2022/03/18 09:47:13;;;;;;;14.17;9.23;;;;;;;10.32;57.37;101233.44;4153255;28;20264;-62